sensor_id;sensor_type;location;lat;lon;timestamp;P1;durP1;ratioP1;P2;durP2;ratioP2
65667;SDS011;52369;52.542;13.232;2023-06-22T00:01:52;15.65;;;11.02;;
65667;SDS011;52369;52.542;13.232;2023-06-22T00:04:18;17.48;;;11.88;;
65667;SDS011;52369;52.542;13.232;2023-06-22T00:06:44;18.33;;;11.35;;
65667;SDS011;52369;52.542;13.232;2023-06-22T00:09:10;19.40;;;12.82;;
65667;SDS011;52369;52.542;13.232;2023-06-22T00:11:37;19.90;;;13.02;;
65667;SDS011;52369;52.542;13.232;2023-06-22T00:14:03;17.55;;;12.18;;
65667;SDS011;52369;52.542;13.232;2023-06-22T00:16:31;20.85;;;12.45;;
65667;SDS011;52369;52.542;13.232;2023-06-22T00:18:57;17.35;;;12.13;;
65667;SDS011;52369;52.542;13.232;2023-06-22T00:21:25;16.80;;;12.20;;
65667;SDS011;52369;52.542;13.232;2023-06-22T00:23:51;16.40;;;12.07;;
65667;SDS011;52369;52.542;13.232;2023-06-22T00:26:17;18.50;;;12.30;;
65667;SDS011;52369;52.542;13.232;2023-06-22T00:28:43;18.55;;;12.45;;
65667;SDS011;52369;52.542;13.232;2023-06-22T00:31:09;17.98;;;12.05;;
65667;SDS011;52369;52.542;13.232;2023-06-22T00:33:35;15.43;;;11.88;;
65667;SDS011;52369;52.542;13.232;2023-06-22T00:36:02;16.02;;;11.77;;
65667;SDS011;52369;52.542;13.232;2023-06-22T00:38:28;17.02;;;11.95;;
65667;SDS011;52369;52.542;13.232;2023-06-22T00:40:54;15.82;;;11.43;;
65667;SDS011;52369;52.542;13.232;2023-06-22T00:43:20;15.45;;;11.48;;
65667;SDS011;52369;52.542;13.232;2023-06-22T00:45:46;17.63;;;12.10;;
65667;SDS011;52369;52.542;13.232;2023-06-22T00:48:12;18.10;;;12.40;;
65667;SDS011;52369;52.542;13.232;2023-06-22T00:50:39;16.50;;;11.88;;
65667;SDS011;52369;52.542;13.232;2023-06-22T00:53:06;19.83;;;12.48;;
65667;SDS011;52369;52.542;13.232;2023-06-22T00:55:42;17.83;;;12.15;;
65667;SDS011;52369;52.542;13.232;2023-06-22T00:58:09;15.63;;;11.73;;
65667;SDS011;52369;52.542;13.232;2023-06-22T01:00:36;16.77;;;11.77;;
65667;SDS011;52369;52.542;13.232;2023-06-22T01:03:02;15.80;;;11.98;;
65667;SDS011;52369;52.542;13.232;2023-06-22T01:05:29;17.48;;;11.48;;
65667;SDS011;52369;52.542;13.232;2023-06-22T01:08:11;16.80;;;11.93;;
65667;SDS011;52369;52.542;13.232;2023-06-22T01:10:51;15.20;;;11.55;;
65667;SDS011;52369;52.542;13.232;2023-06-22T01:15:50;17.52;;;12.02;;
65667;SDS011;52369;52.542;13.232;2023-06-22T01:18:17;17.02;;;11.50;;
65667;SDS011;52369;52.542;13.232;2023-06-22T01:20:44;16.40;;;11.80;;
65667;SDS011;52369;52.542;13.232;2023-06-22T01:23:29;15.85;;;11.32;;
65667;SDS011;52369;52.542;13.232;2023-06-22T01:26:02;15.82;;;11.10;;
65667;SDS011;52369;52.542;13.232;2023-06-22T01:31:17;16.20;;;11.38;;
65667;SDS011;52369;52.542;13.232;2023-06-22T01:33:44;15.68;;;11.05;;
65667;SDS011;52369;52.542;13.232;2023-06-22T01:36:11;16.10;;;11.45;;
65667;SDS011;52369;52.542;13.232;2023-06-22T01:38:37;16.55;;;12.35;;
65667;SDS011;52369;52.542;13.232;2023-06-22T01:41:04;15.27;;;10.95;;
65667;SDS011;52369;52.542;13.232;2023-06-22T01:43:31;14.57;;;10.98;;
65667;SDS011;52369;52.542;13.232;2023-06-22T01:45:59;15.73;;;11.02;;
65667;SDS011;52369;52.542;13.232;2023-06-22T01:48:25;14.80;;;11.23;;
65667;SDS011;52369;52.542;13.232;2023-06-22T01:50:52;16.23;;;11.38;;
65667;SDS011;52369;52.542;13.232;2023-06-22T01:53:20;15.90;;;11.00;;
65667;SDS011;52369;52.542;13.232;2023-06-22T01:55:46;18.05;;;11.93;;
65667;SDS011;52369;52.542;13.232;2023-06-22T01:58:12;16.52;;;11.48;;
65667;SDS011;52369;52.542;13.232;2023-06-22T02:00:39;14.65;;;11.20;;
65667;SDS011;52369;52.542;13.232;2023-06-22T02:03:17;15.05;;;10.77;;
65667;SDS011;52369;52.542;13.232;2023-06-22T02:05:48;16.05;;;11.27;;
65667;SDS011;52369;52.542;13.232;2023-06-22T02:08:25;16.40;;;11.25;;
65667;SDS011;52369;52.542;13.232;2023-06-22T02:10:52;18.15;;;11.88;;
65667;SDS011;52369;52.542;13.232;2023-06-22T02:13:20;19.52;;;12.15;;
65667;SDS011;52369;52.542;13.232;2023-06-22T02:15:46;18.40;;;12.55;;
65667;SDS011;52369;52.542;13.232;2023-06-22T02:18:12;16.42;;;11.60;;
65667;SDS011;52369;52.542;13.232;2023-06-22T02:20:39;16.23;;;11.68;;
65667;SDS011;52369;52.542;13.232;2023-06-22T02:23:06;18.65;;;11.45;;
65667;SDS011;52369;52.542;13.232;2023-06-22T02:25:32;16.08;;;11.45;;
65667;SDS011;52369;52.542;13.232;2023-06-22T02:27:58;16.88;;;11.25;;
65667;SDS011;52369;52.542;13.232;2023-06-22T02:30:25;16.20;;;11.52;;
65667;SDS011;52369;52.542;13.232;2023-06-22T02:32:51;16.73;;;10.95;;
65667;SDS011;52369;52.542;13.232;2023-06-22T02:35:24;19.65;;;11.00;;
65667;SDS011;52369;52.542;13.232;2023-06-22T02:37:50;15.20;;;10.68;;
65667;SDS011;52369;52.542;13.232;2023-06-22T02:40:16;14.90;;;10.80;;
65667;SDS011;52369;52.542;13.232;2023-06-22T02:42:43;16.65;;;11.43;;
65667;SDS011;52369;52.542;13.232;2023-06-22T02:45:09;15.13;;;11.27;;
65667;SDS011;52369;52.542;13.232;2023-06-22T02:47:35;16.98;;;11.02;;
65667;SDS011;52369;52.542;13.232;2023-06-22T02:50:01;17.77;;;11.30;;
65667;SDS011;52369;52.542;13.232;2023-06-22T02:52:27;16.63;;;11.25;;
65667;SDS011;52369;52.542;13.232;2023-06-22T02:54:53;15.93;;;10.70;;
65667;SDS011;52369;52.542;13.232;2023-06-22T02:57:19;15.30;;;10.85;;
65667;SDS011;52369;52.542;13.232;2023-06-22T02:59:45;16.30;;;11.63;;
65667;SDS011;52369;52.542;13.232;2023-06-22T03:02:11;17.33;;;11.15;;
65667;SDS011;52369;52.542;13.232;2023-06-22T03:04:37;16.45;;;10.82;;
65667;SDS011;52369;52.542;13.232;2023-06-22T03:07:03;15.38;;;11.15;;
65667;SDS011;52369;52.542;13.232;2023-06-22T03:09:30;17.48;;;11.40;;
65667;SDS011;52369;52.542;13.232;2023-06-22T03:11:56;15.80;;;11.07;;
65667;SDS011;52369;52.542;13.232;2023-06-22T03:14:22;15.60;;;11.65;;
65667;SDS011;52369;52.542;13.232;2023-06-22T03:16:48;15.88;;;11.73;;
65667;SDS011;52369;52.542;13.232;2023-06-22T03:19:14;14.68;;;11.10;;
65667;SDS011;52369;52.542;13.232;2023-06-22T03:21:40;17.67;;;11.15;;
65667;SDS011;52369;52.542;13.232;2023-06-22T03:24:06;16.50;;;12.25;;
65667;SDS011;52369;52.542;13.232;2023-06-22T03:26:33;15.98;;;11.68;;
65667;SDS011;52369;52.542;13.232;2023-06-22T03:28:59;16.27;;;11.77;;
65667;SDS011;52369;52.542;13.232;2023-06-22T03:31:25;16.48;;;12.23;;
65667;SDS011;52369;52.542;13.232;2023-06-22T03:33:52;17.58;;;12.48;;
65667;SDS011;52369;52.542;13.232;2023-06-22T03:36:18;16.27;;;11.85;;
65667;SDS011;52369;52.542;13.232;2023-06-22T03:38:47;17.23;;;12.27;;
65667;SDS011;52369;52.542;13.232;2023-06-22T03:41:13;16.88;;;12.38;;
65667;SDS011;52369;52.542;13.232;2023-06-22T03:43:39;17.17;;;12.38;;
65667;SDS011;52369;52.542;13.232;2023-06-22T03:46:06;17.67;;;12.32;;
65667;SDS011;52369;52.542;13.232;2023-06-22T03:48:32;17.10;;;12.15;;
65667;SDS011;52369;52.542;13.232;2023-06-22T03:51:01;18.67;;;12.77;;
65667;SDS011;52369;52.542;13.232;2023-06-22T03:53:28;17.95;;;12.68;;
65667;SDS011;52369;52.542;13.232;2023-06-22T03:55:54;16.45;;;12.18;;
65667;SDS011;52369;52.542;13.232;2023-06-22T03:58:20;22.15;;;12.63;;
65667;SDS011;52369;52.542;13.232;2023-06-22T04:00:47;18.38;;;12.20;;
65667;SDS011;52369;52.542;13.232;2023-06-22T04:03:13;18.10;;;12.57;;
65667;SDS011;52369;52.542;13.232;2023-06-22T04:05:40;19.08;;;12.40;;
65667;SDS011;52369;52.542;13.232;2023-06-22T04:08:06;19.60;;;12.38;;
65667;SDS011;52369;52.542;13.232;2023-06-22T04:10:32;19.05;;;12.80;;
65667;SDS011;52369;52.542;13.232;2023-06-22T04:12:59;18.17;;;11.82;;
65667;SDS011;52369;52.542;13.232;2023-06-22T04:15:25;16.33;;;12.48;;
65667;SDS011;52369;52.542;13.232;2023-06-22T04:17:51;16.58;;;11.35;;
65667;SDS011;52369;52.542;13.232;2023-06-22T04:20:17;16.65;;;12.15;;
65667;SDS011;52369;52.542;13.232;2023-06-22T04:22:43;19.58;;;13.10;;
65667;SDS011;52369;52.542;13.232;2023-06-22T04:25:10;17.80;;;11.80;;
65667;SDS011;52369;52.542;13.232;2023-06-22T04:27:36;19.90;;;12.57;;
65667;SDS011;52369;52.542;13.232;2023-06-22T04:30:06;17.20;;;12.25;;
65667;SDS011;52369;52.542;13.232;2023-06-22T04:32:32;18.92;;;12.00;;
65667;SDS011;52369;52.542;13.232;2023-06-22T04:35:01;16.02;;;11.77;;
65667;SDS011;52369;52.542;13.232;2023-06-22T04:37:27;16.80;;;11.00;;
65667;SDS011;52369;52.542;13.232;2023-06-22T04:39:53;17.05;;;10.18;;
65667;SDS011;52369;52.542;13.232;2023-06-22T04:42:19;29.50;;;16.42;;
65667;SDS011;52369;52.542;13.232;2023-06-22T04:44:45;19.77;;;11.82;;
65667;SDS011;52369;52.542;13.232;2023-06-22T04:47:11;20.05;;;11.02;;
65667;SDS011;52369;52.542;13.232;2023-06-22T04:49:37;23.15;;;13.70;;
65667;SDS011;52369;52.542;13.232;2023-06-22T04:52:05;15.30;;;10.18;;
65667;SDS011;52369;52.542;13.232;2023-06-22T04:54:32;13.77;;;9.68;;
65667;SDS011;52369;52.542;13.232;2023-06-22T04:56:59;12.05;;;8.70;;
65667;SDS011;52369;52.542;13.232;2023-06-22T04:59:28;14.20;;;8.73;;
65667;SDS011;52369;52.542;13.232;2023-06-22T05:01:58;14.43;;;9.60;;
65667;SDS011;52369;52.542;13.232;2023-06-22T05:04:25;18.35;;;10.30;;
65667;SDS011;52369;52.542;13.232;2023-06-22T05:06:52;14.55;;;9.80;;
65667;SDS011;52369;52.542;13.232;2023-06-22T05:09:18;13.20;;;9.45;;
65667;SDS011;52369;52.542;13.232;2023-06-22T05:11:44;12.82;;;8.32;;
65667;SDS011;52369;52.542;13.232;2023-06-22T05:14:11;11.43;;;7.50;;
65667;SDS011;52369;52.542;13.232;2023-06-22T05:16:37;13.75;;;8.57;;
65667;SDS011;52369;52.542;13.232;2023-06-22T05:19:03;13.75;;;8.70;;
65667;SDS011;52369;52.542;13.232;2023-06-22T05:21:30;12.93;;;7.70;;
65667;SDS011;52369;52.542;13.232;2023-06-22T05:23:56;11.82;;;7.60;;
65667;SDS011;52369;52.542;13.232;2023-06-22T05:26:27;13.10;;;8.20;;
65667;SDS011;52369;52.542;13.232;2023-06-22T05:28:53;12.30;;;7.40;;
65667;SDS011;52369;52.542;13.232;2023-06-22T05:31:19;11.82;;;7.55;;
65667;SDS011;52369;52.542;13.232;2023-06-22T05:33:46;22.58;;;8.73;;
65667;SDS011;52369;52.542;13.232;2023-06-22T05:36:13;20.70;;;7.43;;
65667;SDS011;52369;52.542;13.232;2023-06-22T05:38:39;11.80;;;7.10;;
65667;SDS011;52369;52.542;13.232;2023-06-22T05:41:06;11.23;;;6.97;;
65667;SDS011;52369;52.542;13.232;2023-06-22T05:43:32;11.18;;;6.65;;
65667;SDS011;52369;52.542;13.232;2023-06-22T05:45:59;10.23;;;6.43;;
65667;SDS011;52369;52.542;13.232;2023-06-22T05:48:25;9.88;;;6.03;;
65667;SDS011;52369;52.542;13.232;2023-06-22T05:50:51;11.63;;;6.15;;
65667;SDS011;52369;52.542;13.232;2023-06-22T05:53:17;9.38;;;5.65;;
65667;SDS011;52369;52.542;13.232;2023-06-22T05:55:43;11.98;;;6.38;;
65667;SDS011;52369;52.542;13.232;2023-06-22T05:58:09;12.05;;;4.63;;
65667;SDS011;52369;52.542;13.232;2023-06-22T06:00:36;7.45;;;4.72;;
65667;SDS011;52369;52.542;13.232;2023-06-22T06:03:02;10.18;;;5.05;;
65667;SDS011;52369;52.542;13.232;2023-06-22T06:05:32;8.77;;;5.15;;
65667;SDS011;52369;52.542;13.232;2023-06-22T06:07:58;6.72;;;4.55;;
65667;SDS011;52369;52.542;13.232;2023-06-22T06:10:24;7.53;;;4.20;;
65667;SDS011;52369;52.542;13.232;2023-06-22T06:12:51;11.02;;;4.72;;
65667;SDS011;52369;52.542;13.232;2023-06-22T06:15:17;9.45;;;3.97;;
65667;SDS011;52369;52.542;13.232;2023-06-22T06:17:50;7.78;;;4.70;;
65667;SDS011;52369;52.542;13.232;2023-06-22T06:20:20;6.35;;;4.20;;
65667;SDS011;52369;52.542;13.232;2023-06-22T06:22:46;6.88;;;4.18;;
65667;SDS011;52369;52.542;13.232;2023-06-22T06:25:12;7.20;;;3.80;;
65667;SDS011;52369;52.542;13.232;2023-06-22T06:27:44;9.73;;;4.40;;
65667;SDS011;52369;52.542;13.232;2023-06-22T06:30:10;7.97;;;4.57;;
65667;SDS011;52369;52.542;13.232;2023-06-22T06:32:37;9.95;;;4.10;;
65667;SDS011;52369;52.542;13.232;2023-06-22T06:35:04;9.10;;;4.80;;
65667;SDS011;52369;52.542;13.232;2023-06-22T06:37:31;8.48;;;4.22;;
65667;SDS011;52369;52.542;13.232;2023-06-22T06:39:57;6.57;;;3.85;;
65667;SDS011;52369;52.542;13.232;2023-06-22T06:42:23;9.15;;;4.05;;
65667;SDS011;52369;52.542;13.232;2023-06-22T06:44:49;9.27;;;4.80;;
65667;SDS011;52369;52.542;13.232;2023-06-22T06:47:15;6.88;;;4.50;;
65667;SDS011;52369;52.542;13.232;2023-06-22T06:49:42;7.55;;;4.32;;
65667;SDS011;52369;52.542;13.232;2023-06-22T06:52:08;9.82;;;4.95;;
65667;SDS011;52369;52.542;13.232;2023-06-22T06:54:34;7.80;;;4.80;;
65667;SDS011;52369;52.542;13.232;2023-06-22T06:57:00;7.90;;;4.53;;
65667;SDS011;52369;52.542;13.232;2023-06-22T06:59:28;11.55;;;6.28;;
65667;SDS011;52369;52.542;13.232;2023-06-22T07:01:55;9.10;;;4.85;;
65667;SDS011;52369;52.542;13.232;2023-06-22T07:04:21;8.40;;;4.63;;
65667;SDS011;52369;52.542;13.232;2023-06-22T07:06:47;10.05;;;5.00;;
65667;SDS011;52369;52.542;13.232;2023-06-22T07:09:13;6.60;;;4.45;;
65667;SDS011;52369;52.542;13.232;2023-06-22T07:11:39;8.80;;;4.40;;
65667;SDS011;52369;52.542;13.232;2023-06-22T07:14:05;7.35;;;4.38;;
65667;SDS011;52369;52.542;13.232;2023-06-22T07:16:35;9.27;;;4.70;;
65667;SDS011;52369;52.542;13.232;2023-06-22T07:19:01;8.10;;;4.65;;
65667;SDS011;52369;52.542;13.232;2023-06-22T07:21:27;9.05;;;5.30;;
65667;SDS011;52369;52.542;13.232;2023-06-22T07:23:53;7.38;;;3.97;;
65667;SDS011;52369;52.542;13.232;2023-06-22T07:26:20;7.20;;;3.95;;
65667;SDS011;52369;52.542;13.232;2023-06-22T07:28:46;7.20;;;4.07;;
65667;SDS011;52369;52.542;13.232;2023-06-22T07:31:12;8.07;;;4.00;;
65667;SDS011;52369;52.542;13.232;2023-06-22T07:33:38;5.20;;;3.92;;
65667;SDS011;52369;52.542;13.232;2023-06-22T07:36:04;7.32;;;4.05;;
65667;SDS011;52369;52.542;13.232;2023-06-22T07:38:32;6.97;;;3.83;;
65667;SDS011;52369;52.542;13.232;2023-06-22T07:40:59;7.25;;;4.10;;
65667;SDS011;52369;52.542;13.232;2023-06-22T07:43:25;6.57;;;3.55;;
65667;SDS011;52369;52.542;13.232;2023-06-22T07:45:51;10.60;;;3.90;;
65667;SDS011;52369;52.542;13.232;2023-06-22T07:48:21;6.63;;;3.85;;
65667;SDS011;52369;52.542;13.232;2023-06-22T07:50:47;5.65;;;3.70;;
65667;SDS011;52369;52.542;13.232;2023-06-22T07:53:14;6.05;;;3.72;;
65667;SDS011;52369;52.542;13.232;2023-06-22T07:55:40;6.13;;;3.40;;
65667;SDS011;52369;52.542;13.232;2023-06-22T07:58:06;8.43;;;3.80;;
65667;SDS011;52369;52.542;13.232;2023-06-22T08:00:33;6.63;;;3.53;;
65667;SDS011;52369;52.542;13.232;2023-06-22T08:02:59;5.30;;;3.03;;
65667;SDS011;52369;52.542;13.232;2023-06-22T08:05:28;8.10;;;4.10;;
65667;SDS011;52369;52.542;13.232;2023-06-22T08:07:55;8.75;;;4.55;;
65667;SDS011;52369;52.542;13.232;2023-06-22T08:10:21;6.18;;;3.40;;
65667;SDS011;52369;52.542;13.232;2023-06-22T08:12:47;10.23;;;5.40;;
65667;SDS011;52369;52.542;13.232;2023-06-22T08:15:13;7.25;;;3.33;;
65667;SDS011;52369;52.542;13.232;2023-06-22T08:17:39;7.50;;;3.63;;
65667;SDS011;52369;52.542;13.232;2023-06-22T08:20:06;8.23;;;3.60;;
65667;SDS011;52369;52.542;13.232;2023-06-22T08:22:37;5.60;;;3.47;;
65667;SDS011;52369;52.542;13.232;2023-06-22T08:25:03;6.15;;;3.30;;
65667;SDS011;52369;52.542;13.232;2023-06-22T08:27:29;6.40;;;3.80;;
65667;SDS011;52369;52.542;13.232;2023-06-22T08:29:59;4.70;;;3.28;;
65667;SDS011;52369;52.542;13.232;2023-06-22T08:32:25;6.20;;;3.20;;
65667;SDS011;52369;52.542;13.232;2023-06-22T08:34:52;5.43;;;3.00;;
65667;SDS011;52369;52.542;13.232;2023-06-22T08:37:18;6.50;;;3.22;;
65667;SDS011;52369;52.542;13.232;2023-06-22T08:39:44;4.47;;;2.80;;
65667;SDS011;52369;52.542;13.232;2023-06-22T08:42:11;6.05;;;3.10;;
65667;SDS011;52369;52.542;13.232;2023-06-22T08:44:37;4.85;;;3.00;;
65667;SDS011;52369;52.542;13.232;2023-06-22T08:47:04;6.10;;;3.58;;
65667;SDS011;52369;52.542;13.232;2023-06-22T08:49:30;5.57;;;3.30;;
65667;SDS011;52369;52.542;13.232;2023-06-22T08:51:56;7.30;;;3.22;;
65667;SDS011;52369;52.542;13.232;2023-06-22T08:54:22;8.50;;;3.50;;
65667;SDS011;52369;52.542;13.232;2023-06-22T08:56:48;4.70;;;2.75;;
65667;SDS011;52369;52.542;13.232;2023-06-22T08:59:14;5.13;;;3.20;;
65667;SDS011;52369;52.542;13.232;2023-06-22T09:01:40;5.15;;;3.15;;
65667;SDS011;52369;52.542;13.232;2023-06-22T09:04:10;4.80;;;2.95;;
65667;SDS011;52369;52.542;13.232;2023-06-22T09:06:36;5.18;;;3.10;;
65667;SDS011;52369;52.542;13.232;2023-06-22T09:09:09;5.85;;;2.85;;
65667;SDS011;52369;52.542;13.232;2023-06-22T09:11:35;3.50;;;2.90;;
65667;SDS011;52369;52.542;13.232;2023-06-22T09:14:01;7.15;;;3.38;;
65667;SDS011;52369;52.542;13.232;2023-06-22T09:16:28;4.65;;;2.97;;
65667;SDS011;52369;52.542;13.232;2023-06-22T09:18:55;6.30;;;3.20;;
65667;SDS011;52369;52.542;13.232;2023-06-22T09:21:21;5.30;;;3.47;;
65667;SDS011;52369;52.542;13.232;2023-06-22T09:23:47;4.82;;;3.00;;
65667;SDS011;52369;52.542;13.232;2023-06-22T09:26:16;4.30;;;2.80;;
65667;SDS011;52369;52.542;13.232;2023-06-22T09:28:42;4.82;;;3.10;;
65667;SDS011;52369;52.542;13.232;2023-06-22T09:31:08;4.28;;;2.92;;
65667;SDS011;52369;52.542;13.232;2023-06-22T09:33:35;5.35;;;2.85;;
65667;SDS011;52369;52.542;13.232;2023-06-22T09:36:01;4.13;;;2.80;;
65667;SDS011;52369;52.542;13.232;2023-06-22T09:38:27;4.53;;;2.85;;
65667;SDS011;52369;52.542;13.232;2023-06-22T09:40:53;5.55;;;3.65;;
65667;SDS011;52369;52.542;13.232;2023-06-22T09:43:19;7.18;;;3.72;;
65667;SDS011;52369;52.542;13.232;2023-06-22T09:45:45;5.60;;;3.70;;
65667;SDS011;52369;52.542;13.232;2023-06-22T09:48:11;5.32;;;3.90;;
65667;SDS011;52369;52.542;13.232;2023-06-22T09:50:37;5.68;;;3.70;;
65667;SDS011;52369;52.542;13.232;2023-06-22T09:53:03;5.53;;;3.30;;
65667;SDS011;52369;52.542;13.232;2023-06-22T09:55:29;6.72;;;3.72;;
65667;SDS011;52369;52.542;13.232;2023-06-22T09:57:55;6.88;;;4.00;;
65667;SDS011;52369;52.542;13.232;2023-06-22T10:00:21;6.55;;;4.07;;
65667;SDS011;52369;52.542;13.232;2023-06-22T10:02:48;6.72;;;3.50;;
65667;SDS011;52369;52.542;13.232;2023-06-22T10:05:14;6.60;;;3.78;;
65667;SDS011;52369;52.542;13.232;2023-06-22T10:07:40;7.60;;;3.60;;
65667;SDS011;52369;52.542;13.232;2023-06-22T10:10:08;5.70;;;3.70;;
65667;SDS011;52369;52.542;13.232;2023-06-22T10:12:34;7.75;;;3.92;;
65667;SDS011;52369;52.542;13.232;2023-06-22T10:15:00;6.22;;;3.88;;
65667;SDS011;52369;52.542;13.232;2023-06-22T10:17:27;7.18;;;3.75;;
65667;SDS011;52369;52.542;13.232;2023-06-22T10:19:53;8.40;;;3.80;;
65667;SDS011;52369;52.542;13.232;2023-06-22T10:22:19;6.15;;;3.92;;
65667;SDS011;52369;52.542;13.232;2023-06-22T10:24:45;6.35;;;3.72;;
65667;SDS011;52369;52.542;13.232;2023-06-22T10:27:11;5.13;;;3.72;;
65667;SDS011;52369;52.542;13.232;2023-06-22T10:29:38;6.72;;;4.20;;
65667;SDS011;52369;52.542;13.232;2023-06-22T10:32:04;6.75;;;4.13;;
65667;SDS011;52369;52.542;13.232;2023-06-22T10:34:30;7.18;;;3.95;;
65667;SDS011;52369;52.542;13.232;2023-06-22T10:36:57;6.68;;;4.05;;
65667;SDS011;52369;52.542;13.232;2023-06-22T10:39:23;6.45;;;4.00;;
65667;SDS011;52369;52.542;13.232;2023-06-22T10:41:49;5.65;;;4.00;;
65667;SDS011;52369;52.542;13.232;2023-06-22T10:44:15;6.45;;;3.92;;
65667;SDS011;52369;52.542;13.232;2023-06-22T10:46:42;7.00;;;4.38;;
65667;SDS011;52369;52.542;13.232;2023-06-22T10:49:08;25.70;;;14.85;;
65667;SDS011;52369;52.542;13.232;2023-06-22T10:51:34;8.02;;;5.13;;
65667;SDS011;52369;52.542;13.232;2023-06-22T10:54:00;10.18;;;6.18;;
65667;SDS011;52369;52.542;13.232;2023-06-22T10:56:26;11.13;;;6.03;;
65667;SDS011;52369;52.542;13.232;2023-06-22T10:58:52;10.10;;;5.32;;
65667;SDS011;52369;52.542;13.232;2023-06-22T11:01:20;9.65;;;4.97;;
65667;SDS011;52369;52.542;13.232;2023-06-22T11:03:46;8.25;;;4.82;;
65667;SDS011;52369;52.542;13.232;2023-06-22T11:06:12;7.45;;;4.30;;
65667;SDS011;52369;52.542;13.232;2023-06-22T11:08:39;9.52;;;5.43;;
65667;SDS011;52369;52.542;13.232;2023-06-22T11:11:05;9.13;;;5.65;;
65667;SDS011;52369;52.542;13.232;2023-06-22T11:13:31;9.63;;;5.43;;
65667;SDS011;52369;52.542;13.232;2023-06-22T11:15:57;6.90;;;4.70;;
65667;SDS011;52369;52.542;13.232;2023-06-22T11:18:23;6.75;;;4.40;;
65667;SDS011;52369;52.542;13.232;2023-06-22T11:20:49;7.80;;;4.80;;
65667;SDS011;52369;52.542;13.232;2023-06-22T11:23:15;6.80;;;4.78;;
65667;SDS011;52369;52.542;13.232;2023-06-22T11:25:41;6.32;;;4.38;;
65667;SDS011;52369;52.542;13.232;2023-06-22T11:28:07;6.50;;;4.30;;
65667;SDS011;52369;52.542;13.232;2023-06-22T11:30:34;12.35;;;5.00;;
65667;SDS011;52369;52.542;13.232;2023-06-22T11:33:00;6.68;;;4.53;;
65667;SDS011;52369;52.542;13.232;2023-06-22T11:35:26;6.40;;;4.30;;
65667;SDS011;52369;52.542;13.232;2023-06-22T11:37:52;7.13;;;4.25;;
65667;SDS011;52369;52.542;13.232;2023-06-22T11:40:18;8.13;;;4.53;;
65667;SDS011;52369;52.542;13.232;2023-06-22T11:42:44;5.55;;;4.15;;
65667;SDS011;52369;52.542;13.232;2023-06-22T11:45:10;6.28;;;4.57;;
65667;SDS011;52369;52.542;13.232;2023-06-22T11:47:36;7.10;;;4.65;;
65667;SDS011;52369;52.542;13.232;2023-06-22T11:50:02;6.60;;;4.50;;
65667;SDS011;52369;52.542;13.232;2023-06-22T11:52:29;7.97;;;4.60;;
65667;SDS011;52369;52.542;13.232;2023-06-22T11:54:55;6.50;;;4.07;;
65667;SDS011;52369;52.542;13.232;2023-06-22T11:57:21;8.48;;;4.38;;
65667;SDS011;52369;52.542;13.232;2023-06-22T11:59:47;8.38;;;4.53;;
65667;SDS011;52369;52.542;13.232;2023-06-22T12:02:13;7.65;;;4.93;;
65667;SDS011;52369;52.542;13.232;2023-06-22T12:04:39;8.27;;;5.47;;
65667;SDS011;52369;52.542;13.232;2023-06-22T12:07:05;6.88;;;4.47;;
65667;SDS011;52369;52.542;13.232;2023-06-22T12:09:31;8.60;;;5.35;;
65667;SDS011;52369;52.542;13.232;2023-06-22T12:11:58;7.63;;;4.65;;
65667;SDS011;52369;52.542;13.232;2023-06-22T12:14:24;6.38;;;4.47;;
65667;SDS011;52369;52.542;13.232;2023-06-22T12:16:50;5.70;;;4.50;;
65667;SDS011;52369;52.542;13.232;2023-06-22T12:19:16;7.97;;;4.60;;
65667;SDS011;52369;52.542;13.232;2023-06-22T12:21:42;10.93;;;6.68;;
65667;SDS011;52369;52.542;13.232;2023-06-22T12:24:10;7.35;;;4.95;;
65667;SDS011;52369;52.542;13.232;2023-06-22T12:26:36;6.97;;;4.65;;
65667;SDS011;52369;52.542;13.232;2023-06-22T12:29:02;6.38;;;4.80;;
65667;SDS011;52369;52.542;13.232;2023-06-22T12:31:28;9.20;;;4.70;;
65667;SDS011;52369;52.542;13.232;2023-06-22T12:33:54;7.45;;;4.80;;
65667;SDS011;52369;52.542;13.232;2023-06-22T12:36:20;6.82;;;4.68;;
65667;SDS011;52369;52.542;13.232;2023-06-22T12:38:46;5.65;;;4.20;;
65667;SDS011;52369;52.542;13.232;2023-06-22T12:41:12;7.00;;;4.30;;
65667;SDS011;52369;52.542;13.232;2023-06-22T12:43:38;7.93;;;4.57;;
65667;SDS011;52369;52.542;13.232;2023-06-22T12:46:04;7.82;;;4.60;;
65667;SDS011;52369;52.542;13.232;2023-06-22T12:48:30;6.57;;;4.38;;
65667;SDS011;52369;52.542;13.232;2023-06-22T12:50:56;7.63;;;4.68;;
65667;SDS011;52369;52.542;13.232;2023-06-22T12:53:22;6.47;;;4.47;;
65667;SDS011;52369;52.542;13.232;2023-06-22T12:55:48;5.75;;;4.45;;
65667;SDS011;52369;52.542;13.232;2023-06-22T12:58:14;6.90;;;4.85;;
65667;SDS011;52369;52.542;13.232;2023-06-22T13:00:41;6.63;;;4.38;;
65667;SDS011;52369;52.542;13.232;2023-06-22T13:03:07;7.60;;;4.60;;
65667;SDS011;52369;52.542;13.232;2023-06-22T13:05:33;5.45;;;4.35;;
65667;SDS011;52369;52.542;13.232;2023-06-22T13:08:01;7.75;;;4.65;;
65667;SDS011;52369;52.542;13.232;2023-06-22T13:10:27;8.98;;;6.05;;
65667;SDS011;52369;52.542;13.232;2023-06-22T13:12:53;7.50;;;4.80;;
65667;SDS011;52369;52.542;13.232;2023-06-22T13:15:25;8.27;;;4.50;;
65667;SDS011;52369;52.542;13.232;2023-06-22T13:17:51;6.25;;;4.50;;
65667;SDS011;52369;52.542;13.232;2023-06-22T13:20:17;6.18;;;4.18;;
65667;SDS011;52369;52.542;13.232;2023-06-22T13:22:43;8.13;;;4.80;;
65667;SDS011;52369;52.542;13.232;2023-06-22T13:25:09;6.32;;;4.10;;
65667;SDS011;52369;52.542;13.232;2023-06-22T13:27:38;6.22;;;4.30;;
65667;SDS011;52369;52.542;13.232;2023-06-22T13:30:04;8.38;;;5.03;;
65667;SDS011;52369;52.542;13.232;2023-06-22T13:32:30;7.30;;;4.80;;
65667;SDS011;52369;52.542;13.232;2023-06-22T13:34:56;5.03;;;4.30;;
65667;SDS011;52369;52.542;13.232;2023-06-22T13:37:22;7.63;;;4.32;;
65667;SDS011;52369;52.542;13.232;2023-06-22T13:39:48;5.90;;;4.28;;
65667;SDS011;52369;52.542;13.232;2023-06-22T13:42:15;6.22;;;4.03;;
65667;SDS011;52369;52.542;13.232;2023-06-22T13:44:41;7.25;;;4.68;;
65667;SDS011;52369;52.542;13.232;2023-06-22T13:47:07;7.32;;;4.93;;
65667;SDS011;52369;52.542;13.232;2023-06-22T13:49:33;6.40;;;4.38;;
65667;SDS011;52369;52.542;13.232;2023-06-22T13:51:59;6.32;;;4.57;;
65667;SDS011;52369;52.542;13.232;2023-06-22T13:54:25;8.57;;;4.93;;
65667;SDS011;52369;52.542;13.232;2023-06-22T13:56:51;8.13;;;4.97;;
65667;SDS011;52369;52.542;13.232;2023-06-22T13:59:17;7.97;;;4.95;;
65667;SDS011;52369;52.542;13.232;2023-06-22T14:01:43;13.43;;;7.30;;
65667;SDS011;52369;52.542;13.232;2023-06-22T14:04:09;10.05;;;5.20;;
65667;SDS011;52369;52.542;13.232;2023-06-22T14:06:35;8.82;;;4.90;;
65667;SDS011;52369;52.542;13.232;2023-06-22T14:09:01;10.82;;;5.07;;
65667;SDS011;52369;52.542;13.232;2023-06-22T14:11:27;7.63;;;4.65;;
65667;SDS011;52369;52.542;13.232;2023-06-22T14:13:53;6.78;;;4.85;;
65667;SDS011;52369;52.542;13.232;2023-06-22T14:16:19;7.00;;;4.60;;
65667;SDS011;52369;52.542;13.232;2023-06-22T14:18:46;8.52;;;4.55;;
65667;SDS011;52369;52.542;13.232;2023-06-22T14:21:12;5.60;;;4.53;;
65667;SDS011;52369;52.542;13.232;2023-06-22T14:23:38;7.93;;;4.90;;
65667;SDS011;52369;52.542;13.232;2023-06-22T14:26:04;7.32;;;4.47;;